Главная страница
METAR-TAF:

METAR-TAF

Аэропорты :

Багдад, Ирак

широта: 33-15-45N, долгота: 44-14-04E, высота над уровнем моря: 35 м

Текущие метеонаблюдения

Эта сводка был подготовлена 28 минут назад, в 13:00 UTC
Ветер 11 Узел от западно-северо-западный, изменяющийся между западный-юго-западный и северо-западный
Температура 26°C
Влажность 32%
Давление 1010 hPa
Видимость 10 км и более
небольшая облачность на высоте 3000 фута

METAR: ORBI 231300Z 29011KT 250V310 9999 FEW030 26/08 Q1010 NOSIG

Время: 16:28 (13:28 UTC)

Прогноз

Эта сводка был подготовлена 3 часа и 28 минут назад, в 10:00 UTC
Прогноз действительный с 23-го 12 UTC до 24-го 12 UTC
Ветер 8 Узел от западно-северо-западный
Видимость 10 км и более
Нет облачности ниже 1500 м, и нет кучево-дождевой облачности
изменения
С 23-го 20 UTC до 23-го 22 UTC
Ветер 3 Узел переменных направлений

TAF: ORBI 231000Z 2312/2412 30008KT CAVOK BECMG 2320/2322 VRB03KT

Метеонаблюдения и прогнозы для более 4000 аэропортов (сводки METAR и TAF).

Имеющиеся станции представлены на карте желтыми и красными точками.

Чтобы увидеть название станции, наведите на нее мышь.

Затем щелкните, чтобы увидеть метеонаблюдения и метеопрогнозы.

Управление картой: чтобы увеличить масштаб, щелкните зеленые кнопки с черным крестиком; чтобы уменьшить масштаб, щелкните зеленую кнопку с тире; для просмотра соседних карт щелкайте зеленые стрелки.


METAR-TAF: